EPRZ

Rzeszów-Jasionka Airport

Rzeszów, Poland
METAR EPRZ 232200Z 35006KT 9999 OVC043 M05/M07 Q1021 R27/42//95
Observed Flight Rules
Feb-23 @ 22:00 UTC (33 minutes ago) Visual Flight Rules
Wind Visibility Clouds
350° at 6 knots 10,000+ meters
  • Overcast at 4,300' AGL
Temperatures Readings
Current -5°C / 23°F
Dewpoint -7°C / 19°F
Humidity 86%
Altimeter 30.15" Hg
Pressure 1021 hPa
Elevation 202
METAR EPRZ 232200Z 35006KT 9999 OVC043 M05/M07 Q1021 R27/42//95
Observed Flight Rules
Feb-23 @ 22:00 UTC
(33 minutes ago)
VFR
Wind Visibility
350° at 6 knots 10,000+ meters
Clouds
  • Overcast at 4,300' AGL
Temperature Dewpoint
-5°C / 23°F -7°C / 19°F
Humidity Altimeter Pressure
86% 30.15" Hg 1021 hPa